Athol, SD

4:44 AM CDT on May 26, 2015 (GMT -0500)
Aberdeen Regional | | Change Station
CLOSE
Current Station
Airport
Location: Aberdeen,
Elevation: 1299 ft
Nearby Weather Stations

Elev 1299 ft 45.44 °N, 98.41 °W | Updated 51 minutes ago

Partly Cloudy
Partly Cloudy
48 °F
Feels Like 48 °F
N
0
Wind Variable Wind from North

Today
High -- | Low -- °F
--% Chance of Precip.
Yesterday
High -- | Low -- °F
Precip. -- in
5:54 AM 9:08 PM
First Quarter, 56% visible
Pressure 29.88 in
Visibility 10.0 miles
Clouds Clear
Dew Point 46 °F
Humidity 93%
Rainfall 0.00 in
Snow Depth Not available.
UV 0 out of 12
Pollen .90 out of 12
Air Quality Not available.
Flu Activity Sporadic
METAR KABR 260853Z AUTO 00000KT 10SM CLR 09/08 A2988

More Conditions Fewer Conditions

Pressure 29.88 in
Visibility 10.0 miles
Clouds Clear
Dew Point 46 °F
Humidity 93%
Rainfall 0.00 in
Snow Depth Not available.
UV 0 out of 12
Pollen .90 out of 12
Air Quality Not available.
Flu Activity Sporadic
METAR KABR 260853Z AUTO 00000KT 10SM CLR 09/08 A2988

More Conditions Fewer Conditions

10-Day Weather Forecast

Almanac

Astronomy

May. 26, 2015 Rise Set
Actual Time
Civil Twilight
Nautical Twilight
Astronomical Twilight
Moon
Length of Visible Light
Length of Day
Tomorrow will be .
, % of the Moon is Illuminated

Today's Extremes

State Highs State Lows

Community

WunderPhotos

Upload Photos

1,824,302 photos uploaded!

WunderBlogs® & News

Nearby

Air Quality

  Air Quality AQ Index Pollutant
Not available.

Snow Depth

Station Depth Elevation

Earthquake Activity

City Distance Mag. Time & Date
Minimum magnitude displayed is 2.5.

Coastal Water Temperatures

Place Temperature

Stations

Nearby Weather Stations

Station Location Temp. Windchill Dew Point Humidity Wind Precip. Elev Updated Type